sensor_id;sensor_type;location;lat;lon;timestamp;temperature;humidity
46608;DHT22;32330;51.936;7.184;2022-11-15T03:21:07;9.90;99.90
46608;DHT22;32330;51.936;7.184;2022-11-15T03:23:54;9.90;99.90
46608;DHT22;32330;51.936;7.184;2022-11-15T03:26:42;9.90;99.90
46608;DHT22;32330;51.936;7.184;2022-11-15T03:29:32;9.90;99.90
46608;DHT22;32330;51.936;7.184;2022-11-15T03:32:20;10.00;99.90
46608;DHT22;32330;51.936;7.184;2022-11-15T03:35:09;10.00;99.90
46608;DHT22;32330;51.936;7.184;2022-11-15T03:38:03;10.00;99.90
46608;DHT22;32330;51.936;7.184;2022-11-15T03:40:55;10.00;99.90
46608;DHT22;32330;51.936;7.184;2022-11-15T03:43:49;10.10;99.90
46608;DHT22;32330;51.936;7.184;2022-11-15T03:46:40;10.10;99.90
46608;DHT22;32330;51.936;7.184;2022-11-15T03:49:30;10.10;99.90
46608;DHT22;32330;51.936;7.184;2022-11-15T03:52:17;10.10;99.90
46608;DHT22;32330;51.936;7.184;2022-11-15T03:55:08;10.20;99.90
46608;DHT22;32330;51.936;7.184;2022-11-15T03:57:57;10.20;99.90
46608;DHT22;32330;51.936;7.184;2022-11-15T04:00:43;10.20;99.90
46608;DHT22;32330;51.936;7.184;2022-11-15T04:03:29;10.20;99.90
46608;DHT22;32330;51.936;7.184;2022-11-15T04:06:14;10.20;99.90
46608;DHT22;32330;51.936;7.184;2022-11-15T04:08:59;10.30;99.90
46608;DHT22;32330;51.936;7.184;2022-11-15T04:11:46;10.30;99.90
46608;DHT22;32330;51.936;7.184;2022-11-15T04:14:32;10.40;99.90
46608;DHT22;32330;51.936;7.184;2022-11-15T04:17:17;10.40;99.90
46608;DHT22;32330;51.936;7.184;2022-11-15T04:20:04;10.40;99.90
46608;DHT22;32330;51.936;7.184;2022-11-15T04:23:10;10.50;99.90
46608;DHT22;32330;51.936;7.184;2022-11-15T04:26:16;10.50;99.90
46608;DHT22;32330;51.936;7.184;2022-11-15T04:29:04;10.50;99.90
46608;DHT22;32330;51.936;7.184;2022-11-15T04:32:10;10.50;99.90
46608;DHT22;32330;51.936;7.184;2022-11-15T04:34:55;10.60;99.90
46608;DHT22;32330;51.936;7.184;2022-11-15T04:37:41;10.60;99.90
46608;DHT22;32330;51.936;7.184;2022-11-15T04:40:26;10.60;99.90
46608;DHT22;32330;51.936;7.184;2022-11-15T04:43:12;10.60;99.90
46608;DHT22;32330;51.936;7.184;2022-11-15T04:45:59;10.60;99.90
46608;DHT22;32330;51.936;7.184;2022-11-15T04:48:45;10.60;99.90
46608;DHT22;32330;51.936;7.184;2022-11-15T04:51:30;10.60;99.90
46608;DHT22;32330;51.936;7.184;2022-11-15T04:54:15;10.70;99.90
46608;DHT22;32330;51.936;7.184;2022-11-15T04:57:01;10.70;99.90
46608;DHT22;32330;51.936;7.184;2022-11-15T04:59:47;10.80;99.90
46608;DHT22;32330;51.936;7.184;2022-11-15T05:02:34;10.80;99.90
46608;DHT22;32330;51.936;7.184;2022-11-15T05:05:37;10.80;99.90
46608;DHT22;32330;51.936;7.184;2022-11-15T05:08:23;10.80;99.90
46608;DHT22;32330;51.936;7.184;2022-11-15T05:11:08;10.80;99.90
46608;DHT22;32330;51.936;7.184;2022-11-15T05:13:54;10.80;99.90
46608;DHT22;32330;51.936;7.184;2022-11-15T05:16:40;10.90;99.90
46608;DHT22;32330;51.936;7.184;2022-11-15T05:19:27;10.90;99.90
46608;DHT22;32330;51.936;7.184;2022-11-15T05:22:12;10.90;99.90
46608;DHT22;32330;51.936;7.184;2022-11-15T05:24:58;10.90;99.90
46608;DHT22;32330;51.936;7.184;2022-11-15T05:27:44;10.90;99.90
46608;DHT22;32330;51.936;7.184;2022-11-15T05:30:30;10.90;99.90
46608;DHT22;32330;51.936;7.184;2022-11-15T05:33:15;10.90;99.90
46608;DHT22;32330;51.936;7.184;2022-11-15T05:36:05;11.00;99.90
46608;DHT22;32330;51.936;7.184;2022-11-15T05:38:53;11.00;99.90
46608;DHT22;32330;51.936;7.184;2022-11-15T05:41:48;11.00;99.90
46608;DHT22;32330;51.936;7.184;2022-11-15T05:44:34;11.10;99.90
46608;DHT22;32330;51.936;7.184;2022-11-15T05:47:23;11.10;99.90
46608;DHT22;32330;51.936;7.184;2022-11-15T05:50:15;11.10;99.90
46608;DHT22;32330;51.936;7.184;2022-11-15T05:53:03;11.20;99.90
46608;DHT22;32330;51.936;7.184;2022-11-15T05:55:49;11.10;99.90
46608;DHT22;32330;51.936;7.184;2022-11-15T05:58:36;11.10;99.90
46608;DHT22;32330;51.936;7.184;2022-11-15T06:01:22;11.20;99.90
46608;DHT22;32330;51.936;7.184;2022-11-15T06:04:08;11.20;99.90
46608;DHT22;32330;51.936;7.184;2022-11-15T06:06:53;11.20;99.90
46608;DHT22;32330;51.936;7.184;2022-11-15T06:09:40;11.20;99.90
46608;DHT22;32330;51.936;7.184;2022-11-15T06:12:26;11.20;99.90
46608;DHT22;32330;51.936;7.184;2022-11-15T06:15:11;11.20;99.90
46608;DHT22;32330;51.936;7.184;2022-11-15T06:17:57;11.10;99.90
46608;DHT22;32330;51.936;7.184;2022-11-15T06:20:42;11.20;99.90
46608;DHT22;32330;51.936;7.184;2022-11-15T06:23:30;11.20;99.90
46608;DHT22;32330;51.936;7.184;2022-11-15T06:26:18;11.20;99.90
46608;DHT22;32330;51.936;7.184;2022-11-15T06:29:03;11.20;99.90
46608;DHT22;32330;51.936;7.184;2022-11-15T06:31:49;11.10;99.90
46608;DHT22;32330;51.936;7.184;2022-11-15T06:34:35;11.20;99.90
46608;DHT22;32330;51.936;7.184;2022-11-15T06:37:21;11.30;99.90
46608;DHT22;32330;51.936;7.184;2022-11-15T06:40:08;11.30;99.90
46608;DHT22;32330;51.936;7.184;2022-11-15T06:42:58;11.30;99.90
46608;DHT22;32330;51.936;7.184;2022-11-15T06:45:44;11.30;99.90
46608;DHT22;32330;51.936;7.184;2022-11-15T06:48:31;11.30;99.90
46608;DHT22;32330;51.936;7.184;2022-11-15T06:51:16;11.30;99.90
46608;DHT22;32330;51.936;7.184;2022-11-15T06:54:02;11.40;99.90
46608;DHT22;32330;51.936;7.184;2022-11-15T06:56:48;11.40;99.90
46608;DHT22;32330;51.936;7.184;2022-11-15T06:59:35;11.40;99.90
46608;DHT22;32330;51.936;7.184;2022-11-15T07:02:20;11.40;99.90
46608;DHT22;32330;51.936;7.184;2022-11-15T07:05:06;11.40;99.90
46608;DHT22;32330;51.936;7.184;2022-11-15T07:07:52;11.40;99.90
46608;DHT22;32330;51.936;7.184;2022-11-15T07:10:38;11.40;99.90
46608;DHT22;32330;51.936;7.184;2022-11-15T07:13:24;11.40;99.90
46608;DHT22;32330;51.936;7.184;2022-11-15T07:16:11;11.40;99.90
46608;DHT22;32330;51.936;7.184;2022-11-15T07:18:57;11.40;99.90
46608;DHT22;32330;51.936;7.184;2022-11-15T07:21:42;11.40;99.90
46608;DHT22;32330;51.936;7.184;2022-11-15T07:24:28;11.40;99.90
46608;DHT22;32330;51.936;7.184;2022-11-15T07:27:13;11.50;99.90
46608;DHT22;32330;51.936;7.184;2022-11-15T07:29:59;11.50;99.90
46608;DHT22;32330;51.936;7.184;2022-11-15T07:32:46;11.50;99.90
46608;DHT22;32330;51.936;7.184;2022-11-15T07:35:32;11.50;99.90
46608;DHT22;32330;51.936;7.184;2022-11-15T07:38:17;11.50;99.90
46608;DHT22;32330;51.936;7.184;2022-11-15T07:41:05;11.60;99.90
46608;DHT22;32330;51.936;7.184;2022-11-15T07:43:51;11.60;99.90
46608;DHT22;32330;51.936;7.184;2022-11-15T07:46:36;11.60;99.90
46608;DHT22;32330;51.936;7.184;2022-11-15T07:49:24;11.60;99.90
46608;DHT22;32330;51.936;7.184;2022-11-15T07:52:09;11.60;99.90
46608;DHT22;32330;51.936;7.184;2022-11-15T07:54:54;11.60;99.90
46608;DHT22;32330;51.936;7.184;2022-11-15T07:57:40;11.60;99.90
46608;DHT22;32330;51.936;7.184;2022-11-15T08:00:25;11.70;99.90
46608;DHT22;32330;51.936;7.184;2022-11-15T08:03:13;11.70;99.90
46608;DHT22;32330;51.936;7.184;2022-11-15T08:06:00;11.80;99.90
46608;DHT22;32330;51.936;7.184;2022-11-15T08:08:46;11.80;99.90
46608;DHT22;32330;51.936;7.184;2022-11-15T08:11:32;11.80;99.90
46608;DHT22;32330;51.936;7.184;2022-11-15T08:14:17;11.80;99.90
46608;DHT22;32330;51.936;7.184;2022-11-15T08:17:03;11.80;99.90
46608;DHT22;32330;51.936;7.184;2022-11-15T08:19:48;11.80;99.90
46608;DHT22;32330;51.936;7.184;2022-11-15T08:22:35;11.90;99.90
46608;DHT22;32330;51.936;7.184;2022-11-15T08:25:21;11.90;99.90
46608;DHT22;32330;51.936;7.184;2022-11-15T08:28:07;12.00;99.90
46608;DHT22;32330;51.936;7.184;2022-11-15T08:30:54;12.00;99.90
46608;DHT22;32330;51.936;7.184;2022-11-15T08:33:40;12.10;99.90
46608;DHT22;32330;51.936;7.184;2022-11-15T08:36:26;12.10;99.90
46608;DHT22;32330;51.936;7.184;2022-11-15T08:39:13;12.20;99.90
46608;DHT22;32330;51.936;7.184;2022-11-15T08:41:59;12.20;99.90
46608;DHT22;32330;51.936;7.184;2022-11-15T08:44:45;12.30;99.90
46608;DHT22;32330;51.936;7.184;2022-11-15T08:47:30;12.30;99.90
46608;DHT22;32330;51.936;7.184;2022-11-15T08:50:16;12.40;99.90
46608;DHT22;32330;51.936;7.184;2022-11-15T08:53:05;12.40;99.90
46608;DHT22;32330;51.936;7.184;2022-11-15T08:55:52;12.40;99.90
46608;DHT22;32330;51.936;7.184;2022-11-15T08:58:38;12.40;99.90
46608;DHT22;32330;51.936;7.184;2022-11-15T09:01:23;12.50;99.90
46608;DHT22;32330;51.936;7.184;2022-11-15T09:04:09;12.50;99.90
46608;DHT22;32330;51.936;7.184;2022-11-15T09:06:55;12.50;99.90
46608;DHT22;32330;51.936;7.184;2022-11-15T09:09:41;12.50;99.90
46608;DHT22;32330;51.936;7.184;2022-11-15T09:12:28;12.60;99.90
46608;DHT22;32330;51.936;7.184;2022-11-15T09:15:13;12.60;99.90
46608;DHT22;32330;51.936;7.184;2022-11-15T09:17:59;12.60;99.90
46608;DHT22;32330;51.936;7.184;2022-11-15T09:20:44;12.70;99.90
46608;DHT22;32330;51.936;7.184;2022-11-15T09:23:30;12.70;97.80
46608;DHT22;32330;51.936;7.184;2022-11-15T09:26:16;12.70;93.90
46608;DHT22;32330;51.936;7.184;2022-11-15T09:29:03;12.70;94.00
46608;DHT22;32330;51.936;7.184;2022-11-15T09:31:48;12.70;92.30
46608;DHT22;32330;51.936;7.184;2022-11-15T09:34:34;12.80;93.10
46608;DHT22;32330;51.936;7.184;2022-11-15T09:37:19;12.70;92.30
46608;DHT22;32330;51.936;7.184;2022-11-15T09:40:06;12.90;90.70
46608;DHT22;32330;51.936;7.184;2022-11-15T09:43:20;12.90;89.20
46608;DHT22;32330;51.936;7.184;2022-11-15T09:46:16;13.00;85.00
46608;DHT22;32330;51.936;7.184;2022-11-15T09:49:22;13.00;72.00
46608;DHT22;32330;51.936;7.184;2022-11-15T09:52:10;13.10;66.20
46608;DHT22;32330;51.936;7.184;2022-11-15T09:54:39;13.10;65.30
46608;DHT22;32330;51.936;7.184;2022-11-15T09:57:11;13.10;60.40
46608;DHT22;32330;51.936;7.184;2022-11-15T09:59:52;13.20;60.00
46608;DHT22;32330;51.936;7.184;2022-11-15T10:02:37;13.40;61.80
46608;DHT22;32330;51.936;7.184;2022-11-15T10:05:11;13.30;57.00
46608;DHT22;32330;51.936;7.184;2022-11-15T10:07:46;13.30;57.10
46608;DHT22;32330;51.936;7.184;2022-11-15T10:10:20;13.30;55.80
46608;DHT22;32330;51.936;7.184;2022-11-15T10:12:50;13.10;60.00
46608;DHT22;32330;51.936;7.184;2022-11-15T10:15:18;13.00;67.50
46608;DHT22;32330;51.936;7.184;2022-11-15T10:18:14;13.10;69.30
46608;DHT22;32330;51.936;7.184;2022-11-15T10:20:48;13.10;67.70
46608;DHT22;32330;51.936;7.184;2022-11-15T10:23:19;13.00;68.50
46608;DHT22;32330;51.936;7.184;2022-11-15T10:25:47;13.00;70.50
46608;DHT22;32330;51.936;7.184;2022-11-15T10:28:21;13.00;72.90
46608;DHT22;32330;51.936;7.184;2022-11-15T10:30:50;13.00;71.70
46608;DHT22;32330;51.936;7.184;2022-11-15T10:33:33;13.00;72.50
46608;DHT22;32330;51.936;7.184;2022-11-15T10:36:20;13.10;70.90
46608;DHT22;32330;51.936;7.184;2022-11-15T10:38:56;13.20;69.00
46608;DHT22;32330;51.936;7.184;2022-11-15T10:41:32;13.30;61.40
46608;DHT22;32330;51.936;7.184;2022-11-15T10:44:22;13.20;59.60
46608;DHT22;32330;51.936;7.184;2022-11-15T10:49:54;13.50;57.50
46608;DHT22;32330;51.936;7.184;2022-11-15T10:52:21;13.60;52.80
46608;DHT22;32330;51.936;7.184;2022-11-15T10:54:54;13.70;50.50
46608;DHT22;32330;51.936;7.184;2022-11-15T10:57:23;13.70;45.60
46608;DHT22;32330;51.936;7.184;2022-11-15T10:59:54;13.80;45.90
46608;DHT22;32330;51.936;7.184;2022-11-15T11:02:32;13.80;44.00
46608;DHT22;32330;51.936;7.184;2022-11-15T11:05:02;13.80;42.90
46608;DHT22;32330;51.936;7.184;2022-11-15T11:07:32;13.90;43.90
46608;DHT22;32330;51.936;7.184;2022-11-15T11:10:02;13.90;41.70
46608;DHT22;32330;51.936;7.184;2022-11-15T11:12:32;13.90;43.00
46608;DHT22;32330;51.936;7.184;2022-11-15T11:15:02;14.00;37.00
46608;DHT22;32330;51.936;7.184;2022-11-15T11:17:47;14.00;32.20
46608;DHT22;32330;51.936;7.184;2022-11-15T11:20:23;14.10;31.40
46608;DHT22;32330;51.936;7.184;2022-11-15T11:23:03;14.30;27.50
46608;DHT22;32330;51.936;7.184;2022-11-15T11:25:34;14.20;14.00
46608;DHT22;32330;51.936;7.184;2022-11-15T11:28:21;14.30;19.40
46608;DHT22;32330;51.936;7.184;2022-11-15T11:31:00;14.30;1.00
46608;DHT22;32330;51.936;7.184;2022-11-15T11:33:32;14.40;4.20
46608;DHT22;32330;51.936;7.184;2022-11-15T11:36:11;14.40;1.00
46608;DHT22;32330;51.936;7.184;2022-11-15T11:38:51;14.40;1.00
46608;DHT22;32330;51.936;7.184;2022-11-15T11:41:38;14.40;1.00
46608;DHT22;32330;51.936;7.184;2022-11-15T11:44:18;14.40;1.00
46608;DHT22;32330;51.936;7.184;2022-11-15T11:46:51;14.50;1.00
46608;DHT22;32330;51.936;7.184;2022-11-15T11:49:25;14.60;1.00
46608;DHT22;32330;51.936;7.184;2022-11-15T11:51:58;14.50;1.00
46608;DHT22;32330;51.936;7.184;2022-11-15T11:54:33;14.60;1.00
46608;DHT22;32330;51.936;7.184;2022-11-15T11:57:04;14.70;99.90
46608;DHT22;32330;51.936;7.184;2022-11-15T11:59:37;14.70;99.90
46608;DHT22;32330;51.936;7.184;2022-11-15T12:02:14;14.70;99.90
46608;DHT22;32330;51.936;7.184;2022-11-15T12:04:45;14.80;99.90
46608;DHT22;32330;51.936;7.184;2022-11-15T12:07:20;14.90;99.90
46608;DHT22;32330;51.936;7.184;2022-11-15T12:09:53;14.90;43.40
46608;DHT22;32330;51.936;7.184;2022-11-15T12:12:27;14.90;1.00
46608;DHT22;32330;51.936;7.184;2022-11-15T12:15:00;14.80;99.90
46608;DHT22;32330;51.936;7.184;2022-11-15T12:17:30;14.80;99.90
46608;DHT22;32330;51.936;7.184;2022-11-15T12:19:58;14.80;99.90
46608;DHT22;32330;51.936;7.184;2022-11-15T12:22:35;14.90;99.90
46608;DHT22;32330;51.936;7.184;2022-11-15T12:25:07;14.90;99.90
46608;DHT22;32330;51.936;7.184;2022-11-15T12:27:37;14.90;99.90
46608;DHT22;32330;51.936;7.184;2022-11-15T12:30:11;14.80;99.90
46608;DHT22;32330;51.936;7.184;2022-11-15T12:32:47;14.80;99.90
46608;DHT22;32330;51.936;7.184;2022-11-15T12:35:24;14.90;99.90
46608;DHT22;32330;51.936;7.184;2022-11-15T12:37:53;15.00;99.90
46608;DHT22;32330;51.936;7.184;2022-11-15T12:40:32;15.10;99.90
46608;DHT22;32330;51.936;7.184;2022-11-15T12:43:36;15.20;99.90
46608;DHT22;32330;51.936;7.184;2022-11-15T12:46:08;15.00;99.90
46608;DHT22;32330;51.936;7.184;2022-11-15T12:48:58;15.10;99.90
46608;DHT22;32330;51.936;7.184;2022-11-15T12:57:39;15.30;1.00
46608;DHT22;32330;51.936;7.184;2022-11-15T13:03:18;15.20;99.90
46608;DHT22;32330;51.936;7.184;2022-11-15T13:06:07;15.00;99.90
46608;DHT22;32330;51.936;7.184;2022-11-15T13:08:46;15.00;99.90
46608;DHT22;32330;51.936;7.184;2022-11-15T13:11:42;14.80;89.90
46608;DHT22;32330;51.936;7.184;2022-11-15T13:14:42;14.80;1.00
46608;DHT22;32330;51.936;7.184;2022-11-15T13:17:28;14.90;99.90
46608;DHT22;32330;51.936;7.184;2022-11-15T13:20:11;15.00;1.00
46608;DHT22;32330;51.936;7.184;2022-11-15T13:22:43;15.00;99.90
46608;DHT22;32330;51.936;7.184;2022-11-15T13:25:52;15.00;99.90
46608;DHT22;32330;51.936;7.184;2022-11-15T13:28:25;15.00;99.90
46608;DHT22;32330;51.936;7.184;2022-11-15T13:30:56;15.00;99.90
46608;DHT22;32330;51.936;7.184;2022-11-15T13:33:25;14.90;99.90
46608;DHT22;32330;51.936;7.184;2022-11-15T13:35:54;14.90;99.90
46608;DHT22;32330;51.936;7.184;2022-11-15T13:38:27;14.90;99.90
46608;DHT22;32330;51.936;7.184;2022-11-15T13:40:55;15.00;8.10
46608;DHT22;32330;51.936;7.184;2022-11-15T13:43:32;14.80;1.00
46608;DHT22;32330;51.936;7.184;2022-11-15T13:46:06;14.80;1.00
46608;DHT22;32330;51.936;7.184;2022-11-15T13:48:34;14.80;1.00
46608;DHT22;32330;51.936;7.184;2022-11-15T13:51:01;14.70;1.00
46608;DHT22;32330;51.936;7.184;2022-11-15T13:53:31;14.70;1.00
46608;DHT22;32330;51.936;7.184;2022-11-15T13:55:59;14.70;10.90
46608;DHT22;32330;51.936;7.184;2022-11-15T13:58:26;14.60;10.50
46608;DHT22;32330;51.936;7.184;2022-11-15T14:00:59;14.50;95.10
46608;DHT22;32330;51.936;7.184;2022-11-15T14:03:31;14.50;75.60
46608;DHT22;32330;51.936;7.184;2022-11-15T14:06:04;14.50;99.90
46608;DHT22;32330;51.936;7.184;2022-11-15T14:08:33;14.50;99.80
46608;DHT22;32330;51.936;7.184;2022-11-15T14:11:09;14.40;99.90
46608;DHT22;32330;51.936;7.184;2022-11-15T14:13:38;14.40;99.90
46608;DHT22;32330;51.936;7.184;2022-11-15T14:16:19;14.40;99.90
46608;DHT22;32330;51.936;7.184;2022-11-15T14:18:49;14.30;99.90
46608;DHT22;32330;51.936;7.184;2022-11-15T14:21:17;14.30;99.90
46608;DHT22;32330;51.936;7.184;2022-11-15T14:23:45;14.30;99.90
46608;DHT22;32330;51.936;7.184;2022-11-15T14:26:27;14.20;99.90
46608;DHT22;32330;51.936;7.184;2022-11-15T14:28:54;14.20;99.90
46608;DHT22;32330;51.936;7.184;2022-11-15T14:31:21;14.20;1.00
46608;DHT22;32330;51.936;7.184;2022-11-15T14:33:49;14.20;1.00
46608;DHT22;32330;51.936;7.184;2022-11-15T14:36:18;14.20;1.00
46608;DHT22;32330;51.936;7.184;2022-11-15T14:38:46;14.20;99.90
46608;DHT22;32330;51.936;7.184;2022-11-15T14:41:21;14.20;66.10
46608;DHT22;32330;51.936;7.184;2022-11-15T14:43:48;14.10;90.50
46608;DHT22;32330;51.936;7.184;2022-11-15T14:46:15;14.10;99.90
46608;DHT22;32330;51.936;7.184;2022-11-15T14:48:42;14.00;99.90
46608;DHT22;32330;51.936;7.184;2022-11-15T14:51:13;14.00;67.10
46608;DHT22;32330;51.936;7.184;2022-11-15T14:53:40;14.00;99.90
46608;DHT22;32330;51.936;7.184;2022-11-15T14:56:07;13.90;33.00
46608;DHT22;32330;51.936;7.184;2022-11-15T14:58:34;13.90;99.90
46608;DHT22;32330;51.936;7.184;2022-11-15T15:01:02;13.80;99.90
46608;DHT22;32330;51.936;7.184;2022-11-15T15:03:29;13.80;99.90
46608;DHT22;32330;51.936;7.184;2022-11-15T15:05:56;13.80;99.90
46608;DHT22;32330;51.936;7.184;2022-11-15T15:08:24;13.70;99.90
46608;DHT22;32330;51.936;7.184;2022-11-15T15:10:51;13.60;99.90
46608;DHT22;32330;51.936;7.184;2022-11-15T15:13:20;13.50;1.00
46608;DHT22;32330;51.936;7.184;2022-11-15T15:15:48;13.50;53.40
46608;DHT22;32330;51.936;7.184;2022-11-15T15:18:15;13.50;99.90
46608;DHT22;32330;51.936;7.184;2022-11-15T15:20:44;13.40;1.00
46608;DHT22;32330;51.936;7.184;2022-11-15T15:23:15;13.50;18.40
46608;DHT22;32330;51.936;7.184;2022-11-15T15:25:45;13.40;99.90
46608;DHT22;32330;51.936;7.184;2022-11-15T15:28:13;13.40;99.90
46608;DHT22;32330;51.936;7.184;2022-11-15T15:30:40;13.40;1.00
46608;DHT22;32330;51.936;7.184;2022-11-15T15:33:07;13.40;44.00
46608;DHT22;32330;51.936;7.184;2022-11-15T15:35:34;13.40;1.00
46608;DHT22;32330;51.936;7.184;2022-11-15T15:38:02;13.40;1.00
46608;DHT22;32330;51.936;7.184;2022-11-15T15:40:31;13.30;99.90
46608;DHT22;32330;51.936;7.184;2022-11-15T15:43:00;13.30;99.90
46608;DHT22;32330;51.936;7.184;2022-11-15T15:45:27;13.30;99.90
46608;DHT22;32330;51.936;7.184;2022-11-15T15:47:55;13.30;99.90
46608;DHT22;32330;51.936;7.184;2022-11-15T15:50:27;13.30;99.90
46608;DHT22;32330;51.936;7.184;2022-11-15T15:52:56;13.20;99.90
46608;DHT22;32330;51.936;7.184;2022-11-15T15:55:23;13.20;99.90
46608;DHT22;32330;51.936;7.184;2022-11-15T15:57:51;13.20;99.90
46608;DHT22;32330;51.936;7.184;2022-11-15T16:00:20;13.20;1.00
46608;DHT22;32330;51.936;7.184;2022-11-15T16:02:48;13.10;19.50
46608;DHT22;32330;51.936;7.184;2022-11-15T16:05:16;13.10;99.90
46608;DHT22;32330;51.936;7.184;2022-11-15T16:07:44;13.10;99.90
46608;DHT22;32330;51.936;7.184;2022-11-15T16:10:23;13.10;99.90
46608;DHT22;32330;51.936;7.184;2022-11-15T16:12:52;13.00;99.90
46608;DHT22;32330;51.936;7.184;2022-11-15T16:15:22;13.00;99.90
46608;DHT22;32330;51.936;7.184;2022-11-15T16:17:51;13.00;99.90
46608;DHT22;32330;51.936;7.184;2022-11-15T16:20:29;13.00;99.90
46608;DHT22;32330;51.936;7.184;2022-11-15T16:22:56;12.90;99.90
46608;DHT22;32330;51.936;7.184;2022-11-15T16:25:23;12.90;99.90
46608;DHT22;32330;51.936;7.184;2022-11-15T16:27:50;12.90;99.90
46608;DHT22;32330;51.936;7.184;2022-11-15T16:30:21;12.90;99.90
46608;DHT22;32330;51.936;7.184;2022-11-15T16:32:49;12.90;99.90
46608;DHT22;32330;51.936;7.184;2022-11-15T16:35:16;12.90;99.90
46608;DHT22;32330;51.936;7.184;2022-11-15T16:37:44;12.90;99.90
46608;DHT22;32330;51.936;7.184;2022-11-15T16:40:24;12.90;99.90
46608;DHT22;32330;51.936;7.184;2022-11-15T16:42:52;12.90;99.90
46608;DHT22;32330;51.936;7.184;2022-11-15T16:45:22;12.90;99.90
46608;DHT22;32330;51.936;7.184;2022-11-15T16:47:49;12.90;99.90
46608;DHT22;32330;51.936;7.184;2022-11-15T16:50:19;12.90;99.90
46608;DHT22;32330;51.936;7.184;2022-11-15T16:52:50;12.90;99.90
46608;DHT22;32330;51.936;7.184;2022-11-15T16:55:18;12.90;99.90
46608;DHT22;32330;51.936;7.184;2022-11-15T16:57:45;12.90;99.90
46608;DHT22;32330;51.936;7.184;2022-11-15T17:00:12;12.90;99.90
46608;DHT22;32330;51.936;7.184;2022-11-15T17:02:45;12.80;99.90
46608;DHT22;32330;51.936;7.184;2022-11-15T17:05:12;12.80;99.90
46608;DHT22;32330;51.936;7.184;2022-11-15T17:07:39;12.80;99.90
46608;DHT22;32330;51.936;7.184;2022-11-15T17:10:09;12.80;99.90
46608;DHT22;32330;51.936;7.184;2022-11-15T17:12:36;12.80;99.90
46608;DHT22;32330;51.936;7.184;2022-11-15T17:15:04;12.80;99.90
46608;DHT22;32330;51.936;7.184;2022-11-15T17:17:32;12.80;99.90
46608;DHT22;32330;51.936;7.184;2022-11-15T17:20:20;12.80;99.90
46608;DHT22;32330;51.936;7.184;2022-11-15T17:23:13;12.80;99.90
46608;DHT22;32330;51.936;7.184;2022-11-15T17:25:46;12.80;99.90
46608;DHT22;32330;51.936;7.184;2022-11-15T17:28:13;12.80;99.90
46608;DHT22;32330;51.936;7.184;2022-11-15T17:30:40;12.80;99.90
46608;DHT22;32330;51.936;7.184;2022-11-15T17:33:08;12.80;99.90
46608;DHT22;32330;51.936;7.184;2022-11-15T17:35:36;12.80;99.90
46608;DHT22;32330;51.936;7.184;2022-11-15T17:38:03;12.80;1.00
46608;DHT22;32330;51.936;7.184;2022-11-15T17:40:30;12.70;1.00
46608;DHT22;32330;51.936;7.184;2022-11-15T17:42:57;12.70;1.00
46608;DHT22;32330;51.936;7.184;2022-11-15T17:51:46;12.70;36.10
46608;DHT22;32330;51.936;7.184;2022-11-15T17:54:13;12.70;40.80
46608;DHT22;32330;51.936;7.184;2022-11-15T17:56:40;12.70;11.70
46608;DHT22;32330;51.936;7.184;2022-11-15T17:59:08;12.70;18.70
46608;DHT22;32330;51.936;7.184;2022-11-15T18:01:42;12.70;33.60
46608;DHT22;32330;51.936;7.184;2022-11-15T18:04:38;12.70;56.60
46608;DHT22;32330;51.936;7.184;2022-11-15T18:07:15;12.60;62.10
46608;DHT22;32330;51.936;7.184;2022-11-15T18:09:43;12.60;90.70
46608;DHT22;32330;51.936;7.184;2022-11-15T18:12:10;12.60;99.90
46608;DHT22;32330;51.936;7.184;2022-11-15T18:14:37;12.60;99.90
46608;DHT22;32330;51.936;7.184;2022-11-15T18:17:04;12.60;99.90
46608;DHT22;32330;51.936;7.184;2022-11-15T18:19:34;12.60;99.90
46608;DHT22;32330;51.936;7.184;2022-11-15T18:22:01;12.50;99.90
46608;DHT22;32330;51.936;7.184;2022-11-15T18:24:32;12.60;99.90
46608;DHT22;32330;51.936;7.184;2022-11-15T18:27:01;12.50;99.90
46608;DHT22;32330;51.936;7.184;2022-11-15T18:29:28;12.50;99.90
46608;DHT22;32330;51.936;7.184;2022-11-15T18:31:55;12.50;99.90
46608;DHT22;32330;51.936;7.184;2022-11-15T18:34:24;12.50;99.90
46608;DHT22;32330;51.936;7.184;2022-11-15T18:36:53;12.60;99.90
46608;DHT22;32330;51.936;7.184;2022-11-15T18:39:20;12.50;99.90
46608;DHT22;32330;51.936;7.184;2022-11-15T18:41:48;12.60;99.90
46608;DHT22;32330;51.936;7.184;2022-11-15T18:44:16;12.60;99.90
46608;DHT22;32330;51.936;7.184;2022-11-15T18:46:43;12.50;99.90
46608;DHT22;32330;51.936;7.184;2022-11-15T18:49:12;12.50;99.90
46608;DHT22;32330;51.936;7.184;2022-11-15T18:51:39;12.60;99.90
46608;DHT22;32330;51.936;7.184;2022-11-15T18:54:08;12.60;99.90
46608;DHT22;32330;51.936;7.184;2022-11-15T18:56:36;12.50;99.90
46608;DHT22;32330;51.936;7.184;2022-11-15T18:59:05;12.50;99.90
46608;DHT22;32330;51.936;7.184;2022-11-15T19:01:34;12.50;99.90
46608;DHT22;32330;51.936;7.184;2022-11-15T19:04:04;12.60;99.90
46608;DHT22;32330;51.936;7.184;2022-11-15T19:06:35;12.50;99.90
46608;DHT22;32330;51.936;7.184;2022-11-15T19:09:02;12.50;99.90
46608;DHT22;32330;51.936;7.184;2022-11-15T19:11:31;12.50;99.90
46608;DHT22;32330;51.936;7.184;2022-11-15T19:14:01;12.50;99.90
46608;DHT22;32330;51.936;7.184;2022-11-15T19:16:32;12.50;99.90
46608;DHT22;32330;51.936;7.184;2022-11-15T19:19:00;12.50;99.90
46608;DHT22;32330;51.936;7.184;2022-11-15T19:21:28;12.50;99.90
46608;DHT22;32330;51.936;7.184;2022-11-15T19:23:56;12.50;99.90
46608;DHT22;32330;51.936;7.184;2022-11-15T19:26:24;12.40;99.90
46608;DHT22;32330;51.936;7.184;2022-11-15T19:28:53;12.40;99.90
46608;DHT22;32330;51.936;7.184;2022-11-15T19:31:22;12.40;99.90
46608;DHT22;32330;51.936;7.184;2022-11-15T19:33:51;12.40;99.90
46608;DHT22;32330;51.936;7.184;2022-11-15T19:36:20;12.40;99.90
46608;DHT22;32330;51.936;7.184;2022-11-15T19:38:47;12.40;99.90
46608;DHT22;32330;51.936;7.184;2022-11-15T19:41:15;12.40;99.90
46608;DHT22;32330;51.936;7.184;2022-11-15T19:43:43;12.40;1.00
46608;DHT22;32330;51.936;7.184;2022-11-15T19:46:13;12.30;1.00
46608;DHT22;32330;51.936;7.184;2022-11-15T19:48:41;12.40;1.00
46608;DHT22;32330;51.936;7.184;2022-11-15T19:51:11;12.40;1.00
46608;DHT22;32330;51.936;7.184;2022-11-15T19:53:38;12.30;1.00
46608;DHT22;32330;51.936;7.184;2022-11-15T19:56:07;12.30;1.00
46608;DHT22;32330;51.936;7.184;2022-11-15T19:58:35;12.30;1.00
46608;DHT22;32330;51.936;7.184;2022-11-15T20:01:04;12.30;1.00
46608;DHT22;32330;51.936;7.184;2022-11-15T20:03:32;12.30;1.00
46608;DHT22;32330;51.936;7.184;2022-11-15T20:06:01;12.30;1.00
46608;DHT22;32330;51.936;7.184;2022-11-15T20:08:30;12.30;1.00
46608;DHT22;32330;51.936;7.184;2022-11-15T20:10:58;12.20;1.00
46608;DHT22;32330;51.936;7.184;2022-11-15T20:13:26;12.20;3.20
46608;DHT22;32330;51.936;7.184;2022-11-15T20:15:53;12.20;7.20